Red Fish — WDF3926 — position and weather

sailwx.info

Track history (hours):
 
Tides and Currents Weather Stations Pressure Air Temp Water Temp Dewpoint Dewpoint Depression Visibility Wind Speed Wind Dir Waves Ship Positions

Red Fish

Owner: Higman Barge Lines, Inc 1980 Post Oak Blvd., Suite 1101 Houston, Texas 77056, Orange, TX. More information available from US FCC via Universal Licensing System and Coast Guard Vessel Documentation Center.

Last reported at 2017-Jun-24 14:51 UTC. Time now 2017-Jun-24 15:28 UTC.
Position N 29°23' W 094°52'.

Length 26 m; draft 2.9 m.

Type: Towing. MMSI: 367445690.

Date/timePositionNaut miles runAvg speedWind from/ knotsBaromVisibWave heightAir tempDewpointWater temp
2017-Jun-24 14:51N 29°23' W 094°52'0 0.0
2017-Jun-24 13:24N 29°23' W 094°52'0 0.0
2017-Jun-24 11:43N 29°23' W 094°52'0 0.0
2017-Jun-24 11:29N 29°23' W 094°52'0 0.0
2017-Jun-24 10:18N 29°23' W 094°52'0 0.0
2017-Jun-24 09:25N 29°23' W 094°52'0 0.0
2017-Jun-24 08:57N 29°23' W 094°52'0 0.0
2017-Jun-24 07:05N 29°23' W 094°52'0 0.0
2017-Jun-24 06:49N 29°23' W 094°52'0 0.0
2017-Jun-24 06:27N 29°23' W 094°52'0 0.0
2017-Jun-24 04:39N 29°23' W 094°52'0 0.0
2017-Jun-24 04:28N 29°23' W 094°52'0 0.0
2017-Jun-24 03:55N 29°23' W 094°52'0 0.0
2017-Jun-24 03:27N 29°23' W 094°52'0 0.0
2017-Jun-24 02:38N 29°23' W 094°52'0 0.0
2017-Jun-24 02:22N 29°23' W 094°52'  
2017-Jun-20 15:40N 29°29' W 094°52'1 7.7
2017-Jun-20 15:30N 29°30' W 094°52'4 7.5
2017-Jun-20 15:00N 29°33' W 094°55'7 6.7
2017-Jun-20 14:00N 29°39' W 094°58'3 6.8
2017-Jun-20 13:30N 29°42' W 094°60'3 5.7
2017-Jun-20 13:00N 29°44' W 095°02'3 6.1
2017-Jun-20 12:30N 29°46' W 095°05'3 5.6
2017-Jun-20 11:53N 29°44' W 095°09'2 5.6
2017-Jun-20 11:30N 29°45' W 095°11'2 4.7
2017-Jun-20 10:58N 29°44' W 095°13'1 0.1
2017-Jun-19 14:30N 29°43' W 095°15'1 0.6
2017-Jun-19 12:52N 29°43' W 095°14'2 4.0
2017-Jun-19 12:26N 29°44' W 095°12'2 4.5
2017-Jun-19 11:55N 29°44' W 095°09'2 4.9
2017-Jun-19 11:30N 29°44' W 095°07'3 0.2
2017-Jun-18 19:31N 29°47' W 095°06'0 0.0
2017-Jun-18 19:25N 29°47' W 095°06'0 0.4
2017-Jun-18 18:56N 29°47' W 095°06'0 0.1
2017-Jun-18 18:30N 29°47' W 095°06'0 0.0
2017-Jun-18 17:24N 29°47' W 095°06'0 0.0
2017-Jun-18 00:32N 29°47' W 095°06'0 0.0
2017-Jun-18 00:04N 29°47' W 095°06'0 1.0
2017-Jun-17 23:59N 29°47' W 095°06'1 2.6
2017-Jun-17 23:30N 29°46' W 095°05'3 6.1
2017-Jun-17 22:58N 29°44' W 095°08'2 3.5
2017-Jun-17 22:30N 29°44' W 095°10'3 5.2
2017-Jun-17 22:00N 29°45' W 095°07'0 0.0
2017-Jun-17 21:28N 29°45' W 095°07'0 0.0
2017-Jun-17 21:00N 29°45' W 095°07'0 0.0
2017-Jun-17 20:30N 29°45' W 095°07'0 0.0
2017-Jun-17 19:58N 29°45' W 095°07'0 0.0
2017-Jun-17 19:27N 29°45' W 095°07'0 0.0
2017-Jun-17 18:57N 29°45' W 095°07'0 0.0
2017-Jun-17 18:30N 29°45' W 095°07'2 4.3
2017-Jun-17 17:56N 29°46' W 095°05'1 0.4
2017-Jun-17 14:51N 29°47' W 095°06'0 0.0
2017-Jun-17 14:22N 29°47' W 095°06'0 0.0
2017-Jun-17 11:20N 29°47' W 095°06'0 0.0
2017-Jun-17 09:57N 29°47' W 095°06'0 0.0
2017-Jun-17 09:27N 29°47' W 095°06'0 0.0
2017-Jun-17 09:00N 29°47' W 095°06'0 0.1
2017-Jun-17 08:29N 29°47' W 095°06'0 0.0
2017-Jun-17 08:00N 29°47' W 095°06'0 0.0
2017-Jun-17 07:30N 29°47' W 095°06'0 0.0
2017-Jun-17 05:13N 29°47' W 095°06'0 0.0
2017-Jun-17 04:11N 29°47' W 095°06'0 0.0
2017-Jun-17 03:36N 29°47' W 095°06'0 0.0
2017-Jun-17 03:29N 29°47' W 095°06'0 0.3
2017-Jun-17 02:56N 29°47' W 095°06'0 0.0
2017-Jun-17 02:22N 29°47' W 095°06'0 0.0
2017-Jun-17 01:58N 29°47' W 095°06'0 0.0
2017-Jun-17 01:12N 29°47' W 095°06'0 0.0
2017-Jun-17 00:57N 29°47' W 095°06'0 0.1
2017-Jun-17 00:30N 29°47' W 095°06'1 2.5
2017-Jun-16 23:59N 29°47' W 095°04'0 0.6
2017-Jun-16 23:30N 29°47' W 095°05'0 0.0
2017-Jun-16 22:59N 29°47' W 095°05'1 1.7
2017-Jun-16 22:30N 29°46' W 095°05'0 0.3
2017-Jun-16 21:42N 29°46' W 095°05'0 0.0
2017-Jun-16 21:30N 29°46' W 095°05'2 3.0
2017-Jun-16 21:00N 29°45' W 095°04'3 7.1
2017-Jun-16 20:30N 29°42' W 095°01'4 7.7
2017-Jun-16 20:00N 29°39' W 094°58'4 8.0
2017-Jun-16 19:30N 29°36' W 094°57'4 8.3
2017-Jun-16 19:00N 29°32' W 094°54'7 8.6
2017-Jun-16 18:14N 29°26' W 094°50'2 9.6
2017-Jun-16 18:00N 29°24' W 094°49'23 1.5
2017-Jun-16 02:10N 29°34' W 094°25'  
Track history (hours):
 
Tides and Currents Weather Stations Pressure Air Temp Water Temp Dewpoint Dewpoint Depression Visibility Wind Speed Wind Dir Waves Ship Positions

Red Fish

Owner: Higman Barge Lines, Inc 1980 Post Oak Blvd., Suite 1101 Houston, Texas 77056, Orange, TX. More information available from US FCC via Universal Licensing System and Coast Guard Vessel Documentation Center.

Last reported at 2017-Jun-24 14:51 UTC. Time now 2017-Jun-24 15:28 UTC.
Position N 29°23' W 094°52'.

Length 26 m; draft 2.9 m.

Type: Towing. MMSI: 367445690.

Date/timePositionNaut miles runAvg speedWind from/ knotsBaromVisibWave heightAir tempDewpointWater temp
2017-Jun-24 14:51N 29°23' W 094°52'0 0.0
2017-Jun-24 13:24N 29°23' W 094°52'0 0.0
2017-Jun-24 11:43N 29°23' W 094°52'0 0.0
2017-Jun-24 11:29N 29°23' W 094°52'0 0.0
2017-Jun-24 10:18N 29°23' W 094°52'0 0.0
2017-Jun-24 09:25N 29°23' W 094°52'0 0.0
2017-Jun-24 08:57N 29°23' W 094°52'0 0.0
2017-Jun-24 07:05N 29°23' W 094°52'0 0.0
2017-Jun-24 06:49N 29°23' W 094°52'0 0.0
2017-Jun-24 06:27N 29°23' W 094°52'0 0.0
2017-Jun-24 04:39N 29°23' W 094°52'0 0.0
2017-Jun-24 04:28N 29°23' W 094°52'0 0.0
2017-Jun-24 03:55N 29°23' W 094°52'0 0.0
2017-Jun-24 03:27N 29°23' W 094°52'0 0.0
2017-Jun-24 02:38N 29°23' W 094°52'0 0.0
2017-Jun-24 02:22N 29°23' W 094°52'  
2017-Jun-20 15:40N 29°29' W 094°52'1 7.7
2017-Jun-20 15:30N 29°30' W 094°52'4 7.5
2017-Jun-20 15:00N 29°33' W 094°55'7 6.7
2017-Jun-20 14:00N 29°39' W 094°58'3 6.8
2017-Jun-20 13:30N 29°42' W 094°60'3 5.7
2017-Jun-20 13:00N 29°44' W 095°02'3 6.1
2017-Jun-20 12:30N 29°46' W 095°05'3 5.6
2017-Jun-20 11:53N 29°44' W 095°09'2 5.6
2017-Jun-20 11:30N 29°45' W 095°11'2 4.7
2017-Jun-20 10:58N 29°44' W 095°13'1 0.1
2017-Jun-19 14:30N 29°43' W 095°15'1 0.6
2017-Jun-19 12:52N 29°43' W 095°14'2 4.0
2017-Jun-19 12:26N 29°44' W 095°12'2 4.5
2017-Jun-19 11:55N 29°44' W 095°09'2 4.9
2017-Jun-19 11:30N 29°44' W 095°07'3 0.2
2017-Jun-18 19:31N 29°47' W 095°06'0 0.0
2017-Jun-18 19:25N 29°47' W 095°06'0 0.4
2017-Jun-18 18:56N 29°47' W 095°06'0 0.1
2017-Jun-18 18:30N 29°47' W 095°06'0 0.0
2017-Jun-18 17:24N 29°47' W 095°06'0 0.0
2017-Jun-18 00:32N 29°47' W 095°06'0 0.0
2017-Jun-18 00:04N 29°47' W 095°06'0 1.0
2017-Jun-17 23:59N 29°47' W 095°06'1 2.6
2017-Jun-17 23:30N 29°46' W 095°05'3 6.1
2017-Jun-17 22:58N 29°44' W 095°08'2 3.5
2017-Jun-17 22:30N 29°44' W 095°10'3 5.2
2017-Jun-17 22:00N 29°45' W 095°07'0 0.0
2017-Jun-17 21:28N 29°45' W 095°07'0 0.0
2017-Jun-17 21:00N 29°45' W 095°07'0 0.0
2017-Jun-17 20:30N 29°45' W 095°07'0 0.0
2017-Jun-17 19:58N 29°45' W 095°07'0 0.0
2017-Jun-17 19:27N 29°45' W 095°07'0 0.0
2017-Jun-17 18:57N 29°45' W 095°07'0 0.0
2017-Jun-17 18:30N 29°45' W 095°07'2 4.3
2017-Jun-17 17:56N 29°46' W 095°05'1 0.4
2017-Jun-17 14:51N 29°47' W 095°06'0 0.0
2017-Jun-17 14:22N 29°47' W 095°06'0 0.0
2017-Jun-17 11:20N 29°47' W 095°06'0 0.0
2017-Jun-17 09:57N 29°47' W 095°06'0 0.0
2017-Jun-17 09:27N 29°47' W 095°06'0 0.0
2017-Jun-17 09:00N 29°47' W 095°06'0 0.1
2017-Jun-17 08:29N 29°47' W 095°06'0 0.0
2017-Jun-17 08:00N 29°47' W 095°06'0 0.0
2017-Jun-17 07:30N 29°47' W 095°06'0 0.0
2017-Jun-17 05:13N 29°47' W 095°06'0 0.0
2017-Jun-17 04:11N 29°47' W 095°06'0 0.0
2017-Jun-17 03:36N 29°47' W 095°06'0 0.0
2017-Jun-17 03:29N 29°47' W 095°06'0 0.3
2017-Jun-17 02:56N 29°47' W 095°06'0 0.0
2017-Jun-17 02:22N 29°47' W 095°06'0 0.0
2017-Jun-17 01:58N 29°47' W 095°06'0 0.0
2017-Jun-17 01:12N 29°47' W 095°06'0 0.0
2017-Jun-17 00:57N 29°47' W 095°06'0 0.1
2017-Jun-17 00:30N 29°47' W 095°06'1 2.5
2017-Jun-16 23:59N 29°47' W 095°04'0 0.6
2017-Jun-16 23:30N 29°47' W 095°05'0 0.0
2017-Jun-16 22:59N 29°47' W 095°05'1 1.7
2017-Jun-16 22:30N 29°46' W 095°05'0 0.3
2017-Jun-16 21:42N 29°46' W 095°05'0 0.0
2017-Jun-16 21:30N 29°46' W 095°05'2 3.0
2017-Jun-16 21:00N 29°45' W 095°04'3 7.1
2017-Jun-16 20:30N 29°42' W 095°01'4 7.7
2017-Jun-16 20:00N 29°39' W 094°58'4 8.0
2017-Jun-16 19:30N 29°36' W 094°57'4 8.3
2017-Jun-16 19:00N 29°32' W 094°54'7 8.6
2017-Jun-16 18:14N 29°26' W 094°50'2 9.6
2017-Jun-16 18:00N 29°24' W 094°49'23 1.5
2017-Jun-16 02:10N 29°34' W 094°25'  

Dump ship's entire track history